Time;durP1;ratioP1;P1;durP2;ratioP2;P2;SDS_P1;SDS_P2;PMS_P1;PMS_P2;Temp;Humidity;BMP_temperature;BMP_pressure;BME280_temperature;BME280_humidity;BME280_pressure;Samples;Min_cycle;Max_cycle;Signal;HPM_P1;HPM_P2
2022/06/10 00:00:46;;;;;;;;;7.00;7.00;;;;;20.72;57.82;101879.69;5076301;28;45356;-69
2022/06/10 00:03:13;;;;;;;;;5.67;4.33;;;;;20.76;56.55;101875.50;5063838;28;45297;-69
2022/06/10 00:05:43;;;;;;;;;4.67;4.67;;;;;20.78;56.85;101878.94;5074282;28;46143;-70
2022/06/10 00:08:12;;;;;;;;;7.33;3.67;;;;;20.79;55.83;101879.81;5057460;28;45601;-70
2022/06/10 00:10:38;;;;;;;;;8.67;6.67;;;;;20.79;56.37;101883.44;5066697;28;45409;-70
2022/06/10 00:13:05;;;;;;;;;9.00;6.00;;;;;20.70;58.00;101867.97;5061964;28;45691;-69
2022/06/10 00:15:31;;;;;;;;;8.67;7.67;;;;;20.77;57.06;101871.69;5063391;28;45463;-69
2022/06/10 00:17:58;;;;;;;;;10.67;7.00;;;;;20.77;56.57;101870.84;5062519;28;45386;-69
2022/06/10 00:20:26;;;;;;;;;5.00;5.00;;;;;20.82;56.99;101871.16;5070499;28;45499;-68
2022/06/10 00:22:52;;;;;;;;;7.33;4.00;;;;;20.78;56.59;101870.66;5064309;28;45191;-68
2022/06/10 00:25:18;;;;;;;;;7.67;7.00;;;;;20.73;56.02;101866.75;5063862;28;45983;-69
2022/06/10 00:27:45;;;;;;;;;6.00;6.00;;;;;20.75;57.01;101873.78;5062363;28;45222;-69
2022/06/10 00:30:11;;;;;;;;;3.67;3.67;;;;;20.73;56.39;101875.91;5073637;27;45366;-69
2022/06/10 00:32:37;;;;;;;;;8.67;6.00;;;;;20.65;56.31;101864.94;5062715;28;45344;-68
2022/06/10 00:35:03;;;;;;;;;3.00;3.00;;;;;20.65;56.45;101866.81;5073339;28;45405;-69
2022/06/10 00:37:30;;;;;;;;;4.00;4.00;;;;;20.65;56.12;101866.81;5059685;27;45250;-68
2022/06/10 00:39:55;;;;;;;;;4.33;4.00;;;;;20.66;56.74;101872.16;5072261;28;45463;-69
2022/06/10 00:42:20;;;;;;;;;5.67;5.00;;;;;20.66;56.50;101866.66;5063912;27;45253;-68
2022/06/10 00:44:52;;;;;;;;;4.00;4.00;;;;;20.63;57.07;101867.00;5074895;28;45492;-68
2022/06/10 00:47:33;;;;;;;;;4.33;4.00;;;;;20.54;57.52;101870.88;5067461;27;45316;-68
2022/06/10 00:50:12;;;;;;;;;5.33;5.00;;;;;20.59;57.74;101860.16;5079268;28;45221;-69
2022/06/10 00:52:41;;;;;;;;;5.33;5.33;;;;;20.62;56.35;101856.13;5060292;28;45283;-69
2022/06/10 00:55:08;;;;;;;;;6.33;6.33;;;;;20.63;56.95;101857.88;5068310;28;45383;-69
2022/06/10 00:57:39;;;;;;;;;5.67;4.00;;;;;20.61;56.61;101852.53;5071050;27;45247;-69
2022/06/10 01:00:15;;;;;;;;;5.00;3.67;;;;;20.58;56.48;101847.38;5067765;28;45364;-69
2022/06/10 01:02:42;;;;;;;;;5.00;2.00;;;;;20.56;57.13;101855.00;5059411;28;46001;-68
2022/06/10 01:05:15;;;;;;;;;3.67;3.67;;;;;20.51;57.55;101846.41;5069959;28;45422;-69
2022/06/10 01:07:48;;;;;;;;;4.67;4.67;;;;;20.51;57.81;101847.28;5069284;28;45269;-69
2022/06/10 01:10:17;;;;;;;;;5.33;5.00;;;;;20.52;57.17;101850.91;5070851;28;45440;-68
2022/06/10 01:12:51;;;;;;;;;5.67;4.67;;;;;20.49;57.01;101851.25;5065965;28;45528;-68
2022/06/10 01:15:25;;;;;;;;;6.00;4.67;;;;;20.44;57.89;101848.22;5070019;28;45468;-67
2022/06/10 01:18:00;;;;;;;;;3.33;3.33;;;;;20.39;57.73;101857.03;5064186;28;45670;-69
2022/06/10 01:20:31;;;;;;;;;5.00;4.67;;;;;20.43;57.92;101852.00;5063615;28;45382;-69
2022/06/10 01:23:14;;;;;;;;;4.67;4.67;;;;;20.43;57.12;101855.63;5068234;27;45323;-69
2022/06/10 01:25:48;;;;;;;;;3.33;3.33;;;;;20.40;57.45;101855.13;5064194;28;46218;-69
2022/06/10 01:28:35;;;;;;;;;5.33;4.67;;;;;20.41;57.56;101862.38;5065422;28;45329;-69
2022/06/10 01:31:30;;;;;;;;;6.00;2.67;;;;;20.38;58.00;101851.72;5071131;28;45383;-69
2022/06/10 01:34:04;;;;;;;;;3.00;3.00;;;;;20.38;57.51;101852.56;5067738;28;45317;-68
2022/06/10 01:36:52;;;;;;;;;5.00;4.00;;;;;20.40;57.11;101852.38;5073724;27;47913;-68
2022/06/10 01:39:28;;;;;;;;;6.67;5.00;;;;;20.36;57.94;101853.81;5067970;28;45557;-68
2022/06/10 01:42:03;;;;;;;;;4.67;4.67;;;;;20.30;58.00;101855.38;5070230;27;45414;-68
2022/06/10 01:44:52;;;;;;;;;5.00;5.00;;;;;20.27;58.56;101852.13;5072851;28;45447;-69
2022/06/10 01:47:22;;;;;;;;;4.00;4.00;;;;;20.26;58.76;101850.38;5066528;27;46454;-69
2022/06/10 01:50:09;;;;;;;;;6.00;3.00;;;;;20.23;58.65;101853.53;5076496;28;45525;-69
2022/06/10 01:52:43;;;;;;;;;5.00;4.00;;;;;20.28;58.10;101857.47;5060674;28;45322;-69
2022/06/10 01:55:18;;;;;;;;;3.33;3.33;;;;;20.31;57.97;101864.53;5068794;28;45469;-69
2022/06/10 01:57:52;;;;;;;;;6.00;4.67;;;;;20.31;58.43;101859.00;5068427;27;46354;-69
2022/06/10 02:00:21;;;;;;;;;6.33;5.00;;;;;20.19;58.04;101867.69;5064826;28;45390;-68
2022/06/10 02:03:03;;;;;;;;;3.00;3.00;;;;;20.12;57.97;101852.91;5080099;28;45331;-68
2022/06/10 02:05:34;;;;;;;;;4.00;4.00;;;;;20.19;58.21;101861.31;5065452;28;45332;-70
2022/06/10 02:08:32;;;;;;;;;3.00;3.00;;;;;20.08;58.31;101865.38;5062850;28;46312;-69
2022/06/10 02:11:12;;;;;;;;;4.33;4.00;;;;;20.10;58.80;101866.03;5033208;28;45807;-68
2022/06/10 02:13:44;;;;;;;;;3.00;3.00;;;;;20.06;58.47;101867.44;5065059;28;45278;-68
2022/06/10 02:16:14;;;;;;;;;5.33;4.00;;;;;19.91;59.39;101873.94;5064988;28;45415;-69
2022/06/10 02:18:55;;;;;;;;;4.00;4.00;;;;;19.91;59.14;101858.25;5064569;28;45547;-68
2022/06/10 02:21:27;;;;;;;;;4.33;4.33;;;;;19.91;58.83;101863.75;5064547;28;45493;-68
2022/06/10 02:24:05;;;;;;;;;2.67;1.33;;;;;19.90;59.86;101859.28;5063613;28;45367;-69
2022/06/10 02:26:34;;;;;;;;;3.67;3.67;;;;;19.89;59.14;101865.84;5065121;28;45437;-68
2022/06/10 02:29:06;;;;;;;;;4.33;4.00;;;;;19.90;59.17;101852.91;5064149;28;46012;-69
2022/06/10 02:31:38;;;;;;;;;3.00;3.00;;;;;19.87;59.70;101854.13;5062911;28;46027;-69
2022/06/10 02:34:05;;;;;;;;;2.00;2.00;;;;;19.73;59.64;101855.75;5064430;28;45492;-68
2022/06/10 02:36:37;;;;;;;;;4.00;4.00;;;;;19.74;59.81;101863.00;5064987;28;45351;-69
2022/06/10 02:39:12;;;;;;;;;7.00;6.00;;;;;19.57;60.79;101871.56;5064072;28;45383;-68
2022/06/10 02:41:56;;;;;;;;;5.00;3.33;;;;;19.58;60.17;101876.03;5079868;28;45344;-68
2022/06/10 02:44:36;;;;;;;;;5.33;5.33;;;;;19.53;60.46;101865.53;5064500;28;45579;-68
2022/06/10 02:47:26;;;;;;;;;4.67;4.67;;;;;19.53;60.77;101876.56;5080010;28;45235;-69
2022/06/10 02:49:52;;;;;;;;;6.67;5.67;;;;;19.52;60.99;101871.22;5062633;28;47798;-68
2022/06/10 02:52:21;;;;;;;;;5.33;4.33;;;;;19.55;59.95;101865.34;5063877;28;45294;-68
2022/06/10 02:54:47;;;;;;;;;6.00;4.67;;;;;19.51;60.40;101875.88;5064240;28;45299;-69
2022/06/10 02:57:15;;;;;;;;;4.00;4.00;;;;;19.47;60.58;101888.31;5064399;28;45222;-68
2022/06/10 03:02:54;;;;;;;;;5.33;4.00;;;;;19.38;62.09;101881.91;5063591;28;45527;-68
2022/06/10 03:06:09;;;;;;;;;2.67;2.67;;;;;19.32;61.38;101871.63;5039875;28;45256;-68
2022/06/10 03:08:45;;;;;;;;;4.00;3.00;;;;;19.37;61.05;101888.47;5039515;28;45438;-68
2022/06/10 03:11:35;;;;;;;;;3.00;3.00;;;;;19.29;61.49;101882.13;5062345;28;47296;-68
2022/06/10 03:14:13;;;;;;;;;7.33;4.33;;;;;19.35;61.49;101887.81;5062608;28;45351;-69
2022/06/10 03:16:58;;;;;;;;;5.00;5.00;;;;;19.35;61.14;101881.44;5063658;28;45222;-68
2022/06/10 03:19:57;;;;;;;;;4.00;4.00;;;;;19.32;61.73;101877.13;5062698;28;45548;-69
2022/06/10 03:22:45;;;;;;;;;4.67;4.67;;;;;19.33;61.11;101881.59;5063495;28;45948;-69
2022/06/10 03:25:23;;;;;;;;;8.00;6.00;;;;;19.25;61.65;101883.53;5062309;28;45406;-68
2022/06/10 03:28:12;;;;;;;;;4.67;4.67;;;;;19.27;61.01;101884.22;5063738;28;45231;-69
2022/06/10 03:30:49;;;;;;;;;7.67;6.00;;;;;19.26;61.65;101885.25;5063518;28;45487;-68
2022/06/10 03:33:28;;;;;;;;;5.67;5.67;;;;;19.22;62.03;101897.66;5062126;28;47732;-68
2022/06/10 03:36:03;;;;;;;;;2.33;2.33;;;;;19.13;62.07;101899.59;5063388;28;46483;-69
2022/06/10 03:38:31;;;;;;;;;8.00;5.33;;;;;19.10;62.88;101902.69;5063355;28;45314;-68
2022/06/10 03:40:59;;;;;;;;;7.00;4.67;;;;;19.01;62.96;101896.34;5063748;28;45412;-68
2022/06/10 03:43:25;;;;;;;;;4.33;4.00;;;;;19.12;62.32;101892.34;5061781;28;47000;-68
2022/06/10 03:45:58;;;;;;;;;4.33;3.00;;;;;19.08;63.98;101896.47;5062984;28;45340;-68
2022/06/10 03:48:26;;;;;;;;;4.00;4.00;;;;;19.01;63.81;101889.97;5063208;28;45314;-69
2022/06/10 03:50:51;;;;;;;;;4.00;3.00;;;;;18.97;63.63;101891.38;5063648;28;45534;-68
2022/06/10 03:53:22;;;;;;;;;5.67;5.33;;;;;19.02;62.57;101883.41;5061621;28;46998;-69
2022/06/10 03:55:48;;;;;;;;;7.00;6.33;;;;;19.04;63.14;101887.72;5063328;28;45317;-69
2022/06/10 03:58:13;;;;;;;;;7.00;6.33;;;;;19.07;63.57;101897.50;5062950;28;45329;-69
2022/06/10 04:00:39;;;;;;;;;7.00;5.33;;;;;19.06;62.98;101887.56;5063363;28;45279;-69
2022/06/10 04:03:05;;;;;;;;;4.33;4.33;;;;;19.03;64.09;101893.41;5062600;28;45487;-69
2022/06/10 04:05:31;;;;;;;;;6.33;5.33;;;;;18.85;64.76;101898.28;5063099;28;45280;-70
2022/06/10 04:07:57;;;;;;;;;6.33;4.33;;;;;18.87;64.83;101898.94;5062726;28;45483;-69
2022/06/10 04:10:28;;;;;;;;;4.33;4.00;;;;;18.89;66.30;101903.25;5063195;28;45169;-69
2022/06/10 04:12:53;;;;;;;;;3.33;3.00;;;;;18.75;65.57;101889.34;5062724;28;45350;-69
2022/06/10 04:15:20;;;;;;;;;6.00;4.67;;;;;18.88;65.38;101907.03;5062680;28;45371;-68
2022/06/10 04:17:48;;;;;;;;;4.00;4.00;;;;;18.95;65.56;101912.69;5063012;28;45321;-69
2022/06/10 04:20:23;;;;;;;;;5.67;4.33;;;;;18.93;65.29;101909.25;5063429;28;45504;-69
2022/06/10 04:22:48;;;;;;;;;5.33;4.33;;;;;18.93;65.78;101915.63;5064645;28;48110;-69
2022/06/10 04:25:14;;;;;;;;;5.33;4.00;;;;;18.88;66.28;101918.06;5066534;28;45316;-69
2022/06/10 04:27:40;;;;;;;;;6.00;6.00;;;;;18.94;66.23;101913.72;5066360;28;45558;-69
2022/06/10 04:30:08;;;;;;;;;9.67;5.33;;;;;18.97;66.24;101916.16;5066523;28;45326;-70
2022/06/10 04:32:34;;;;;;;;;9.00;5.67;;;;;18.98;66.76;101912.38;5065972;28;46596;-69
2022/06/10 04:35:00;;;;;;;;;6.67;4.00;;;;;19.01;66.53;101912.00;5065918;28;45404;-68
2022/06/10 04:37:26;;;;;;;;;6.00;5.33;;;;;18.98;66.72;101918.75;5066011;28;45355;-70
2022/06/10 04:39:51;;;;;;;;;5.33;4.00;;;;;19.04;66.97;101920.78;5066569;28;45532;-68
2022/06/10 04:42:17;;;;;;;;;6.00;3.00;;;;;19.07;65.99;101922.31;5065715;28;45349;-68
2022/06/10 04:44:42;;;;;;;;;5.33;5.00;;;;;18.97;66.47;101916.16;5065842;28;45432;-69
2022/06/10 04:47:08;;;;;;;;;6.00;5.00;;;;;19.00;66.92;101924.03;5066042;28;45187;-68
2022/06/10 04:49:36;;;;;;;;;3.67;3.67;;;;;18.97;66.70;101919.75;5065189;28;45191;-68
2022/06/10 04:52:04;;;;;;;;;5.67;5.00;;;;;18.94;67.44;101922.84;5063966;28;48408;-69
2022/06/10 04:54:30;;;;;;;;;5.00;5.00;;;;;19.00;67.04;101921.28;5065953;27;45294;-68
2022/06/10 04:56:55;;;;;;;;;5.00;5.00;;;;;18.97;68.14;101918.91;5065817;28;45305;-68
2022/06/10 04:59:21;;;;;;;;;5.00;4.33;;;;;19.14;67.18;101923.31;5066098;28;45396;-69
2022/06/10 05:01:46;;;;;;;;;4.00;4.00;;;;;19.24;66.93;101918.50;5065392;28;45211;-68
2022/06/10 05:04:11;;;;;;;;;6.00;4.00;;;;;19.40;66.91;101923.09;5065758;28;45284;-69
2022/06/10 05:06:37;;;;;;;;;6.67;6.00;;;;;19.36;66.25;101921.72;5065137;28;45318;-69
2022/06/10 05:09:02;;;;;;;;;6.33;5.33;;;;;19.35;66.41;101925.53;5065700;28;45472;-69
2022/06/10 05:11:28;;;;;;;;;7.00;5.00;;;;;19.56;65.38;101917.56;5065351;28;46563;-68
2022/06/10 05:13:53;;;;;;;;;8.33;5.00;;;;;19.76;65.44;101916.06;5065751;28;45329;-70
2022/06/10 05:16:19;;;;;;;;;6.00;4.33;;;;;19.88;64.90;101918.41;5065229;28;45905;-70
2022/06/10 05:18:44;;;;;;;;;6.00;5.33;;;;;19.87;64.52;101917.56;5065588;28;45230;-70
2022/06/10 05:21:10;;;;;;;;;5.00;4.67;;;;;20.03;63.70;101919.38;5064744;28;45244;-71
2022/06/10 05:23:36;;;;;;;;;6.00;4.00;;;;;20.00;64.06;101920.59;5064790;28;45262;-71
2022/06/10 05:26:02;;;;;;;;;8.00;5.67;;;;;20.04;64.32;101924.69;5064771;28;45352;-70
2022/06/10 05:28:27;;;;;;;;;7.00;7.00;;;;;19.99;64.27;101929.91;5063907;28;45341;-69
2022/06/10 05:30:53;;;;;;;;;4.67;4.67;;;;;19.90;64.04;101922.72;5063700;28;46139;-69
2022/06/10 05:33:19;;;;;;;;;3.33;3.33;;;;;20.06;64.56;101936.44;5065027;28;45368;-69
2022/06/10 05:35:46;;;;;;;;;5.00;3.00;;;;;21.19;61.40;101926.38;5063488;28;45365;-69
2022/06/10 05:38:12;;;;;;;;;3.00;3.00;;;;;21.80;58.76;101928.91;5065308;28;45448;-69
2022/06/10 05:40:37;;;;;;;;;8.00;6.00;;;;;22.80;55.26;101925.16;5064354;28;46250;-69
2022/06/10 05:43:04;;;;;;;;;5.33;5.00;;;;;22.66;54.85;101927.97;5063024;28;45307;-69
2022/06/10 05:45:30;;;;;;;;;4.33;3.00;;;;;22.09;55.42;101935.28;5062878;28;45384;-70
2022/06/10 05:48:00;;;;;;;;;3.33;3.33;;;;;21.69;56.99;101931.16;5064687;28;45520;-68
2022/06/10 05:50:38;;;;;;;;;3.67;3.67;;;;;21.19;58.58;101934.66;5064214;28;45441;-69
2022/06/10 05:53:06;;;;;;;;;7.67;5.00;;;;;21.18;59.03;101934.88;5064118;28;45224;-69
2022/06/10 05:55:32;;;;;;;;;8.67;7.00;;;;;20.98;59.45;101943.66;5063765;28;45319;-68
2022/06/10 05:57:58;;;;;;;;;7.33;4.33;;;;;21.23;59.34;101949.84;5063582;28;45630;-69
2022/06/10 06:00:26;;;;;;;;;3.67;3.00;;;;;21.41;58.81;101951.34;5062687;28;45410;-68
2022/06/10 06:02:52;;;;;;;;;5.67;4.00;;;;;21.49;59.09;101952.13;5063913;28;45321;-69
2022/06/10 06:05:20;;;;;;;;;5.33;4.00;;;;;22.04;57.51;101956.31;5063619;28;45144;-68
2022/06/10 06:07:46;;;;;;;;;4.33;4.00;;;;;23.01;53.65;101954.78;5062159;28;45340;-69
2022/06/10 06:10:15;;;;;;;;;5.33;4.00;;;;;22.65;54.20;101962.28;5062754;28;45377;-70
2022/06/10 06:12:41;;;;;;;;;5.00;5.00;;;;;22.51;55.22;101969.59;5063171;28;45306;-69
2022/06/10 06:15:07;;;;;;;;;4.67;4.67;;;;;22.13;55.38;101966.22;5062919;28;45286;-69
2022/06/10 06:17:32;;;;;;;;;4.00;4.00;;;;;21.90;56.51;101968.22;5063488;28;45444;-69
2022/06/10 06:19:58;;;;;;;;;5.33;5.00;;;;;21.54;57.74;101977.31;5062898;28;45266;-68
2022/06/10 06:22:23;;;;;;;;;6.00;4.00;;;;;21.70;57.98;101971.56;5063021;28;45221;-69
2022/06/10 06:24:49;;;;;;;;;3.00;3.00;;;;;21.96;56.93;101968.34;5061269;28;45237;-69
2022/06/10 06:27:16;;;;;;;;;5.67;5.33;;;;;21.62;58.01;101974.47;5063380;28;45180;-70
2022/06/10 06:29:42;;;;;;;;;6.00;5.00;;;;;21.58;58.03;101973.09;5062093;28;45504;-70
2022/06/10 06:32:07;;;;;;;;;5.00;4.00;;;;;21.65;58.95;101976.81;5060692;28;45373;-71
2022/06/10 06:34:33;;;;;;;;;3.67;3.67;;;;;21.74;57.80;101963.75;5062564;28;45376;-70
2022/06/10 06:36:58;;;;;;;;;4.00;3.00;;;;;22.01;57.11;101971.38;5061421;28;45563;-71
2022/06/10 06:39:26;;;;;;;;;2.00;2.00;;;;;22.19;56.28;101976.50;5062019;28;46035;-68
2022/06/10 06:41:53;;;;;;;;;3.00;3.00;;;;;22.35;56.00;101980.94;5060003;28;45333;-68
2022/06/10 06:44:20;;;;;;;;;5.00;5.00;;;;;22.06;56.52;101970.81;5062400;28;45183;-69
2022/06/10 06:46:45;;;;;;;;;3.67;3.67;;;;;21.77;57.66;101981.88;5062396;28;45240;-70
2022/06/10 06:49:18;;;;;;;;;6.33;6.00;;;;;21.83;57.56;101978.34;5062219;28;45276;-70
2022/06/10 06:51:43;;;;;;;;;5.33;3.00;;;;;21.94;57.15;101970.41;5063070;28;45234;-70
2022/06/10 06:54:09;;;;;;;;;5.00;4.00;;;;;21.77;56.77;101972.50;5063324;28;45345;-70
2022/06/10 06:56:35;;;;;;;;;6.67;5.00;;;;;22.02;56.96;101975.00;5062579;28;45262;-69
2022/06/10 06:59:00;;;;;;;;;4.00;4.00;;;;;22.18;56.03;101969.25;5060772;28;46865;-69
2022/06/10 07:01:25;;;;;;;;;8.00;7.00;;;;;22.37;55.43;101964.97;5062686;28;45260;-69
2022/06/10 07:03:51;;;;;;;;;5.33;3.67;;;;;22.51;54.73;101959.38;5061507;28;45528;-69
2022/06/10 07:06:16;;;;;;;;;3.00;3.00;;;;;22.60;54.96;101975.88;5061854;28;45310;-70
2022/06/10 07:08:42;;;;;;;;;5.67;4.00;;;;;22.72;54.67;101963.22;5062258;28;46247;-68
2022/06/10 07:11:08;;;;;;;;;4.00;4.00;;;;;22.78;53.67;101971.63;5062201;28;45317;-69
2022/06/10 07:13:36;;;;;;;;;2.00;2.00;;;;;22.74;54.26;101969.44;5061705;28;45480;-69
2022/06/10 07:16:01;;;;;;;;;4.33;2.67;;;;;22.43;54.69;101976.13;5062184;28;45472;-70
2022/06/10 07:18:28;;;;;;;;;3.67;3.67;;;;;21.98;55.64;101963.47;5062898;28;46227;-69
2022/06/10 07:20:53;;;;;;;;;5.00;4.00;;;;;22.33;54.52;101961.75;5060650;28;45156;-70
2022/06/10 07:23:19;;;;;;;;;2.67;2.00;;;;;22.53;53.36;101970.25;5061200;28;45294;-70
2022/06/10 07:25:46;;;;;;;;;2.00;2.00;;;;;22.54;52.91;101971.97;5062615;28;45236;-71
2022/06/10 07:28:11;;;;;;;;;1.00;1.00;;;;;22.53;51.80;101968.34;5062057;28;46440;-70
2022/06/10 07:30:38;;;;;;;;;1.33;1.33;;;;;22.59;51.01;101971.38;5061151;28;45569;-70
2022/06/10 07:33:04;;;;;;;;;3.33;3.00;;;;;22.72;50.62;101971.53;5062287;28;45512;-70
2022/06/10 07:35:29;;;;;;;;;5.67;4.00;;;;;22.75;51.20;101974.78;5062779;28;45369;-70
2022/06/10 07:37:57;;;;;;;;;3.67;1.33;;;;;23.11;50.53;101971.91;5061295;28;47955;-70
2022/06/10 07:43:13;;;;;;;;;6.67;6.67;;;;;23.31;50.08;101985.91;5062540;28;45456;-71
2022/06/10 07:45:39;;;;;;;;;3.00;2.00;;;;;23.37;50.23;101984.25;5063318;28;45286;-71
2022/06/10 07:48:05;;;;;;;;;2.00;2.00;;;;;23.59;49.40;101981.25;5063077;28;45432;-70
2022/06/10 07:50:31;;;;;;;;;5.00;3.00;;;;;23.63;49.77;101981.69;5062873;28;45293;-71
2022/06/10 07:52:56;;;;;;;;;3.67;2.00;;;;;23.77;48.23;101986.25;5062818;28;45152;-71
2022/06/10 07:55:22;;;;;;;;;1.00;1.00;;;;;23.68;48.78;101981.91;5062887;28;45203;-71
2022/06/10 07:57:47;;;;;;;;;1.00;1.00;;;;;23.92;47.75;101981.41;5062656;28;45609;-70
2022/06/10 08:00:14;;;;;;;;;2.00;2.00;;;;;23.95;47.54;101981.00;5061117;28;45667;-70
2022/06/10 08:02:40;;;;;;;;;2.00;2.00;;;;;24.07;47.14;101961.81;5062973;28;45292;-71
2022/06/10 08:05:08;;;;;;;;;2.67;2.67;;;;;23.74;48.10;101978.34;5063223;28;45171;-71
2022/06/10 08:07:35;;;;;;;;;3.00;2.00;;;;;24.06;47.81;101980.41;5062648;28;46179;-69
2022/06/10 08:10:00;;;;;;;;;3.00;1.33;;;;;24.29;46.71;101982.00;5061967;28;45363;-71
2022/06/10 08:12:26;;;;;;;;;1.00;1.00;;;;;24.55;47.10;101979.28;5062730;28;45306;-71
2022/06/10 08:14:52;;;;;;;;;0.00;0.00;;;;;24.39;44.65;101977.78;5062813;28;45454;-70
2022/06/10 08:17:18;;;;;;;;;3.33;1.00;;;;;23.89;45.79;101962.38;5062737;28;46138;-69
2022/06/10 08:19:43;;;;;;;;;1.00;1.00;;;;;23.65;46.86;101968.47;5062325;28;45270;-70
2022/06/10 08:24:53;;;;;;;;;3.00;3.00;;;;;23.85;47.89;101980.53;5063559;28;45251;-69
2022/06/10 08:27:19;;;;;;;;;1.33;1.33;;;;;23.79;46.96;101967.47;5062467;28;46445;-69
2022/06/10 08:29:44;;;;;;;;;2.33;1.67;;;;;24.03;47.77;101966.94;5062478;28;45229;-70
2022/06/10 08:32:09;;;;;;;;;1.33;1.00;;;;;24.42;45.46;101966.25;5062811;28;45231;-70
2022/06/10 08:34:36;;;;;;;;;1.00;1.00;;;;;24.27;44.97;101964.69;5063083;28;45507;-70
2022/06/10 08:37:02;;;;;;;;;2.00;2.00;;;;;23.75;45.24;101962.53;5060955;28;46993;-70
2022/06/10 08:39:28;;;;;;;;;4.00;2.00;;;;;23.92;45.82;101959.19;5062212;28;45338;-70
2022/06/10 08:42:09;;;;;;;;;1.00;1.00;;;;;24.24;45.37;101962.34;5062512;28;45346;-70
2022/06/10 08:44:42;;;;;;;;;2.00;2.00;;;;;24.63;43.91;101951.31;5062659;28;45165;-69
2022/06/10 08:47:50;;;;;;;;;1.00;1.00;;;;;24.91;42.40;101955.88;5062195;28;45484;-70
2022/06/10 08:50:24;;;;;;;;;1.67;1.00;;;;;25.06;42.74;101962.91;5062102;28;45506;-70
2022/06/10 08:52:50;;;;;;;;;0.00;0.00;;;;;25.14;41.70;101959.06;5060755;28;45279;-70
2022/06/10 08:55:42;;;;;;;;;1.33;1.33;;;;;25.16;42.36;101956.91;5062679;28;45204;-69
2022/06/10 08:58:32;;;;;;;;;1.67;1.67;;;;;24.98;42.44;101952.03;5062007;28;46144;-70
2022/06/10 09:01:06;;;;;;;;;0.33;0.33;;;;;25.07;41.37;101952.63;5060338;28;45380;-70
2022/06/10 09:03:40;;;;;;;;;1.33;1.33;;;;;25.06;41.53;101957.34;5061729;28;45339;-70
2022/06/10 09:06:12;;;;;;;;;2.00;2.00;;;;;25.13;42.33;101954.59;5062381;28;45243;-70
2022/06/10 09:08:42;;;;;;;;;5.00;4.00;;;;;25.27;41.21;101949.84;5069496;28;46477;-70
2022/06/10 09:11:25;;;;;;;;;0.67;0.00;;;;;25.29;41.25;101945.75;5073539;28;45498;-69
2022/06/10 09:13:57;;;;;;;;;2.00;2.00;;;;;25.63;41.44;101927.13;5072053;28;45360;-69
2022/06/10 09:16:41;;;;;;;;;4.33;1.00;;;;;25.83;41.54;101950.16;5065547;28;45438;-69
2022/06/10 09:19:19;;;;;;;;;3.00;3.00;;;;;25.95;40.81;101951.16;5072438;28;45222;-70
2022/06/10 09:21:48;;;;;;;;;2.00;2.00;;;;;26.08;39.87;101942.75;5048870;28;45485;-70
2022/06/10 09:24:26;;;;;;;;;1.00;1.00;;;;;26.06;39.56;101936.56;5062943;28;45424;-70
2022/06/10 09:27:23;;;;;;;;;1.67;1.67;;;;;26.28;38.95;101940.75;5065755;28;45396;-70
2022/06/10 09:29:48;;;;;;;;;1.00;1.00;;;;;26.17;38.79;101941.41;5064952;28;45468;-70
2022/06/10 09:32:24;;;;;;;;;2.00;2.00;;;;;26.47;39.20;101938.91;5064812;28;45216;-71
2022/06/10 09:35:01;;;;;;;;;2.67;1.33;;;;;26.03;39.99;101941.72;5064964;28;45254;-70
2022/06/10 09:37:37;;;;;;;;;1.00;1.00;;;;;26.46;39.46;101941.91;5064661;28;45555;-70
2022/06/10 09:40:37;;;;;;;;;3.33;2.67;;;;;26.69;39.05;101944.97;5063673;28;46234;-69
2022/06/10 09:43:02;;;;;;;;;1.67;1.67;;;;;26.82;37.81;101953.25;5064257;28;45263;-70
2022/06/10 09:45:45;;;;;;;;;2.00;1.00;;;;;27.02;37.92;101953.13;5064114;28;45506;-70
2022/06/10 09:48:26;;;;;;;;;2.00;2.00;;;;;26.90;37.79;101954.94;5063580;28;45504;-68
2022/06/10 09:51:21;;;;;;;;;0.00;0.00;;;;;26.59;38.01;101958.59;5064496;28;45403;-69
2022/06/10 09:54:02;;;;;;;;;1.00;1.00;;;;;26.82;37.71;101947.66;5064439;28;45460;-69
2022/06/10 09:56:46;;;;;;;;;1.00;1.00;;;;;27.27;38.22;101956.75;5068951;28;45445;-70
2022/06/10 09:59:42;;;;;;;;;1.00;1.00;;;;;27.46;37.97;101946.47;5053622;28;45387;-69
2022/06/10 10:02:45;;;;;;;;;1.00;1.00;;;;;27.51;37.85;101957.78;5062759;28;45587;-69
2022/06/10 10:05:34;;;;;;;;;2.67;2.00;;;;;27.97;36.89;101956.44;5064392;28;45487;-69
2022/06/10 10:08:11;;;;;;;;;2.00;2.00;;;;;28.13;36.49;101950.19;5063909;28;45298;-70
2022/06/10 10:10:49;;;;;;;;;2.67;1.67;;;;;28.27;36.17;101955.38;5064171;28;45532;-69
2022/06/10 10:13:26;;;;;;;;;2.67;1.33;;;;;28.36;36.00;101957.84;5063619;28;45514;-69
2022/06/10 10:16:10;;;;;;;;;3.00;1.33;;;;;27.57;37.86;101956.03;5061722;28;45687;-68
2022/06/10 10:18:44;;;;;;;;;5.33;3.00;;;;;28.15;37.50;101960.06;5051778;28;45293;-67
2022/06/10 10:21:27;;;;;;;;;0.67;0.67;;;;;28.00;37.53;101958.75;5062382;28;45310;-67
2022/06/10 10:23:55;;;;;;;;;3.00;2.67;;;;;27.60;37.66;101955.59;5063868;28;45408;-69
2022/06/10 10:26:37;;;;;;;;;3.00;3.00;;;;;27.08;39.84;101960.59;5080097;27;45466;-70
2022/06/10 10:29:18;;;;;;;;;6.33;5.00;;;;;27.09;39.38;101953.91;5063964;28;45397;-70
2022/06/10 10:31:47;;;;;;;;;1.00;1.00;;;;;27.24;39.43;101942.41;5064447;28;45478;-69
2022/06/10 10:34:19;;;;;;;;;2.67;2.67;;;;;26.59;40.54;101955.81;5062444;28;48127;-70
2022/06/10 10:36:48;;;;;;;;;1.00;1.00;;;;;26.85;39.75;101952.81;5063949;28;45367;-69
2022/06/10 10:39:25;;;;;;;;;0.00;0.00;;;;;27.58;38.95;101946.56;5062660;28;45341;-68
2022/06/10 10:41:53;;;;;;;;;4.67;3.00;;;;;27.55;39.20;101950.69;5080544;27;45622;-67
2022/06/10 10:44:38;;;;;;;;;5.00;4.00;;;;;27.80;39.85;101951.47;5064036;28;46653;-70
2022/06/10 10:47:03;;;;;;;;;7.00;4.00;;;;;28.13;38.77;101952.97;5068641;28;45239;-70
2022/06/10 10:49:34;;;;;;;;;2.00;2.00;;;;;28.41;38.84;101953.28;5062271;28;45405;-69
2022/06/10 10:52:08;;;;;;;;;3.00;1.00;;;;;27.96;38.75;101950.00;5064036;28;45347;-68
2022/06/10 10:54:36;;;;;;;;;2.33;2.33;;;;;27.62;39.62;101954.25;5063828;28;45733;-69
2022/06/10 10:57:14;;;;;;;;;3.00;2.00;;;;;27.50;40.23;101944.91;5063836;28;45252;-70
2022/06/10 10:59:44;;;;;;;;;2.00;2.00;;;;;27.80;40.22;101945.03;5063115;28;45213;-69
2022/06/10 11:02:31;;;;;;;;;2.33;2.33;;;;;28.02;39.48;101948.19;5079335;27;45385;-70
2022/06/10 11:05:26;;;;;;;;;2.00;2.00;;;;;27.66;39.78;101943.47;5063478;28;45384;-72
2022/06/10 11:08:13;;;;;;;;;3.00;2.00;;;;;27.67;39.79;101943.25;5063109;28;45231;-71
2022/06/10 11:11:10;;;;;;;;;5.00;3.00;;;;;27.88;39.68;101937.19;5063251;28;45294;-70
2022/06/10 11:13:50;;;;;;;;;2.00;2.00;;;;;28.57;38.38;101952.56;5062109;28;45573;-72
2022/06/10 11:16:31;;;;;;;;;2.67;1.33;;;;;28.74;37.33;101958.34;5062861;28;45659;-70
2022/06/10 11:19:04;;;;;;;;;2.33;1.00;;;;;28.62;37.73;101960.25;5062771;28;45336;-69
2022/06/10 11:21:30;;;;;;;;;2.00;2.00;;;;;28.73;37.86;101952.97;5061859;28;45480;-69
2022/06/10 11:23:58;;;;;;;;;2.00;2.00;;;;;28.90;37.50;101957.69;5061405;28;45595;-69
2022/06/10 11:26:25;;;;;;;;;2.00;2.00;;;;;29.18;36.95;101947.72;5060379;28;48138;-73
2022/06/10 11:29:07;;;;;;;;;2.00;2.00;;;;;28.09;39.08;101958.19;5062475;28;45325;-72
2022/06/10 11:31:47;;;;;;;;;2.67;2.67;;;;;28.51;37.83;101953.53;5062580;28;45468;-70
2022/06/10 11:34:45;;;;;;;;;2.00;2.00;;;;;28.70;37.63;101945.09;5063246;28;45478;-71
2022/06/10 11:37:31;;;;;;;;;3.67;3.33;;;;;28.17;38.05;101945.88;5062922;28;46108;-69
2022/06/10 11:40:16;;;;;;;;;2.33;2.33;;;;;28.28;37.96;101942.25;5062820;28;45522;-70
2022/06/10 11:42:48;;;;;;;;;3.00;3.00;;;;;28.93;36.30;101945.16;5062795;28;45331;-71
2022/06/10 11:45:24;;;;;;;;;2.33;2.33;;;;;28.16;38.09;101944.16;5062770;28;45435;-71
2022/06/10 11:47:59;;;;;;;;;3.00;2.00;;;;;28.28;37.29;101945.06;5061762;28;45474;-69
2022/06/10 11:50:36;;;;;;;;;3.00;3.00;;;;;28.54;37.71;101925.09;5062232;28;45179;-70
2022/06/10 11:53:10;;;;;;;;;2.00;0.67;;;;;28.99;37.53;101938.59;5062643;28;45452;-71
2022/06/10 11:55:40;;;;;;;;;3.00;3.00;;;;;29.76;35.85;101928.09;5062986;28;45274;-71